createdAt,value
2018-09-06T00:02:12.282Z,14.80
2018-09-06T00:04:40.573Z,14.80
2018-09-06T00:07:09.023Z,14.80
2018-09-06T00:09:37.292Z,14.80
2018-09-06T00:12:05.638Z,14.80
2018-09-06T00:14:33.935Z,14.70
2018-09-06T00:17:02.366Z,14.70
2018-09-06T00:19:30.657Z,14.70
2018-09-06T00:21:58.929Z,14.70
2018-09-06T00:24:27.218Z,14.60
2018-09-06T00:26:55.507Z,14.60
2018-09-06T00:29:23.854Z,14.60
2018-09-06T00:31:52.145Z,14.60
2018-09-06T00:34:20.413Z,14.50
2018-09-06T00:36:48.714Z,14.50
2018-09-06T00:39:17.015Z,14.50
2018-09-06T00:41:45.514Z,14.50
2018-09-06T00:44:13.809Z,14.50
2018-09-06T00:46:42.097Z,14.50
2018-09-06T00:49:10.388Z,14.50
2018-09-06T00:51:38.684Z,14.30
2018-09-06T00:54:06.975Z,14.30
2018-09-06T00:56:35.269Z,14.30
2018-09-06T00:59:03.652Z,14.30
2018-09-06T01:01:31.925Z,14.30
2018-09-06T01:04:00.237Z,14.30
2018-09-06T01:06:28.500Z,14.30
2018-09-06T01:08:56.808Z,14.20
2018-09-06T01:11:25.133Z,14.10
2018-09-06T01:13:53.460Z,14.00
2018-09-06T01:16:21.736Z,14.00
2018-09-06T01:18:50.093Z,14.00
2018-09-06T01:21:18.412Z,14.00
2018-09-06T01:23:46.717Z,13.90
2018-09-06T01:26:15.005Z,13.90
2018-09-06T01:28:43.312Z,13.90
2018-09-06T01:31:11.580Z,13.90
2018-09-06T01:33:39.911Z,13.90
2018-09-06T01:36:23.130Z,13.90
2018-09-06T01:38:51.453Z,13.80
2018-09-06T01:41:19.825Z,13.80
2018-09-06T01:43:48.116Z,13.90
2018-09-06T01:46:16.400Z,13.90
2018-09-06T01:48:44.997Z,13.80
2018-09-06T01:51:13.280Z,13.80
2018-09-06T01:53:41.560Z,13.80
2018-09-06T01:56:09.892Z,13.80
2018-09-06T01:58:38.161Z,13.80
2018-09-06T02:01:06.456Z,13.70
2018-09-06T02:03:34.733Z,13.70
2018-09-06T02:06:03.046Z,13.70
2018-09-06T02:08:31.353Z,13.70
2018-09-06T02:10:59.632Z,13.60
2018-09-06T02:13:27.954Z,13.60
2018-09-06T02:15:56.224Z,13.60
2018-09-06T02:18:24.567Z,13.60
2018-09-06T02:20:52.836Z,13.50
2018-09-06T02:23:21.121Z,13.50
2018-09-06T02:25:49.504Z,13.50
2018-09-06T02:28:17.797Z,13.50
2018-09-06T02:30:46.129Z,13.50
2018-09-06T02:33:14.458Z,13.40
2018-09-06T02:35:42.736Z,13.40
2018-09-06T02:38:11.034Z,13.40
2018-09-06T02:40:40.228Z,13.40
2018-09-06T02:43:12.744Z,13.40
2018-09-06T02:45:42.016Z,13.40
2018-09-06T02:48:10.300Z,13.30
2018-09-06T02:50:43.900Z,13.30
2018-09-06T02:53:12.434Z,13.30
2018-09-06T02:55:40.841Z,13.30
2018-09-06T02:58:09.119Z,13.30
2018-09-06T03:00:38.272Z,13.20
2018-09-06T03:03:06.636Z,13.20
2018-09-06T03:05:34.912Z,13.20
2018-09-06T03:08:03.212Z,13.20
2018-09-06T03:10:35.400Z,13.20
2018-09-06T03:13:03.719Z,13.20
2018-09-06T03:15:32.079Z,13.20
2018-09-06T03:18:00.270Z,13.10
2018-09-06T03:20:28.526Z,13.10
2018-09-06T03:22:56.820Z,13.10
2018-09-06T03:25:25.093Z,13.00
2018-09-06T03:27:53.396Z,13.00
2018-09-06T03:30:21.692Z,13.00
2018-09-06T03:32:49.961Z,13.00
2018-09-06T03:35:18.245Z,12.90
2018-09-06T03:37:46.516Z,12.90
2018-09-06T03:40:14.808Z,12.90
2018-09-06T03:42:43.242Z,12.80
2018-09-06T03:45:11.546Z,12.90
2018-09-06T03:47:39.869Z,12.80
2018-09-06T03:50:08.173Z,12.70
2018-09-06T03:52:37.299Z,12.80
2018-09-06T03:55:05.661Z,12.80
2018-09-06T03:57:33.962Z,12.70
2018-09-06T04:00:02.297Z,12.70
2018-09-06T04:02:30.572Z,12.70
2018-09-06T04:04:58.869Z,12.70
2018-09-06T04:07:27.171Z,12.70
2018-09-06T04:09:55.472Z,12.70
2018-09-06T04:12:23.749Z,12.70
2018-09-06T04:14:52.033Z,12.70
2018-09-06T04:17:20.356Z,12.70
2018-09-06T04:19:48.685Z,12.70
2018-09-06T04:22:16.957Z,12.60
2018-09-06T04:24:45.238Z,12.60
2018-09-06T04:27:13.525Z,12.70
2018-09-06T04:29:41.785Z,12.70
2018-09-06T04:32:10.101Z,12.70
2018-09-06T04:34:38.396Z,12.70
2018-09-06T04:37:06.698Z,12.70
2018-09-06T04:39:34.962Z,12.60
2018-09-06T04:42:03.349Z,12.60
2018-09-06T04:44:31.609Z,12.50
2018-09-06T04:46:59.913Z,12.50
2018-09-06T04:49:28.204Z,12.60
2018-09-06T04:51:56.508Z,12.60
2018-09-06T04:54:24.802Z,12.60
2018-09-06T04:56:53.079Z,12.60
2018-09-06T04:59:21.416Z,12.60
2018-09-06T05:01:49.728Z,12.70
2018-09-06T05:04:18.071Z,12.70
2018-09-06T05:06:46.293Z,12.70
2018-09-06T05:09:14.576Z,12.70
2018-09-06T05:11:42.885Z,12.70
2018-09-06T05:14:11.202Z,12.80
2018-09-06T05:16:39.484Z,12.80
2018-09-06T05:19:07.765Z,12.90
2018-09-06T05:21:36.033Z,12.90
2018-09-06T05:24:04.295Z,13.00
2018-09-06T05:26:32.552Z,13.10
2018-09-06T05:29:00.836Z,13.10
2018-09-06T05:31:29.112Z,13.20
2018-09-06T05:33:57.384Z,13.20
2018-09-06T05:36:25.698Z,13.30
2018-09-06T05:38:53.940Z,13.30
2018-09-06T05:41:22.217Z,13.40
2018-09-06T05:43:50.491Z,13.40
2018-09-06T05:46:18.794Z,13.50
2018-09-06T05:48:47.121Z,13.60
2018-09-06T05:51:15.408Z,13.70
2018-09-06T05:53:43.703Z,13.70
2018-09-06T05:56:11.998Z,13.80
2018-09-06T05:58:40.294Z,13.80
2018-09-06T06:01:08.569Z,13.90
2018-09-06T06:03:36.918Z,14.10
2018-09-06T06:06:05.173Z,14.10
2018-09-06T06:08:41.477Z,14.30
2018-09-06T06:11:09.755Z,14.30
2018-09-06T06:13:38.044Z,14.40
2018-09-06T06:16:06.414Z,14.40
2018-09-06T06:18:34.808Z,14.60
2018-09-06T06:21:03.076Z,14.60
2018-09-06T06:23:31.383Z,14.80
2018-09-06T06:25:59.780Z,14.90
2018-09-06T06:28:28.072Z,15.00
2018-09-06T06:30:56.343Z,15.10
2018-09-06T06:33:24.601Z,15.10
2018-09-06T06:35:52.890Z,15.20
2018-09-06T06:38:21.204Z,15.30
2018-09-06T06:40:49.464Z,15.40
2018-09-06T06:43:17.725Z,15.50
2018-09-06T06:45:46.061Z,15.60
2018-09-06T06:48:14.384Z,15.80
2018-09-06T06:50:42.661Z,15.90
2018-09-06T06:53:10.933Z,16.00
2018-09-06T06:55:39.230Z,16.20
2018-09-06T06:58:07.542Z,16.30
2018-09-06T07:00:40.305Z,16.50
2018-09-06T07:03:09.531Z,16.60
2018-09-06T07:05:38.000Z,16.70
2018-09-06T07:08:06.914Z,16.90
2018-09-06T07:10:35.228Z,17.00
2018-09-06T07:13:03.569Z,17.00
2018-09-06T07:15:31.840Z,17.20
2018-09-06T07:18:00.185Z,17.30
2018-09-06T07:20:28.473Z,17.40
2018-09-06T07:22:56.772Z,17.40
2018-09-06T07:25:25.057Z,17.40
2018-09-06T07:27:53.337Z,17.50
2018-09-06T07:30:21.644Z,17.60
2018-09-06T07:32:49.946Z,17.70
2018-09-06T07:35:18.234Z,17.80
2018-09-06T07:37:46.509Z,17.90
2018-09-06T07:40:14.831Z,18.00
2018-09-06T07:42:43.108Z,18.10
2018-09-06T07:45:11.394Z,18.10
2018-09-06T07:47:39.665Z,18.10
2018-09-06T07:50:08.034Z,18.20
2018-09-06T07:52:36.268Z,18.30
2018-09-06T07:55:04.558Z,18.40
2018-09-06T07:57:32.893Z,18.50
2018-09-06T08:00:01.175Z,18.50
2018-09-06T08:02:29.452Z,18.60
2018-09-06T08:04:57.749Z,18.70
2018-09-06T08:07:26.031Z,18.70
2018-09-06T08:09:54.344Z,18.80
2018-09-06T08:12:22.629Z,18.90
2018-09-06T08:14:50.928Z,19.10
2018-09-06T08:17:19.277Z,19.30
2018-09-06T08:19:47.551Z,19.40
2018-09-06T08:22:15.849Z,19.60
2018-09-06T08:24:44.144Z,19.70
2018-09-06T08:27:12.429Z,19.70
2018-09-06T08:29:40.748Z,19.80
2018-09-06T08:32:09.053Z,19.80
2018-09-06T08:34:37.352Z,20.00
2018-09-06T08:37:05.733Z,20.10
2018-09-06T08:39:34.015Z,20.20
2018-09-06T08:42:02.284Z,20.30
2018-09-06T08:44:30.569Z,20.40
2018-09-06T08:46:58.835Z,20.50
2018-09-06T08:49:27.166Z,20.70
2018-09-06T08:51:55.525Z,20.70
2018-09-06T08:54:23.780Z,20.80
2018-09-06T08:56:52.078Z,20.90
2018-09-06T08:59:20.584Z,21.00
2018-09-06T09:01:48.873Z,21.00
2018-09-06T09:04:17.209Z,20.90
2018-09-06T09:06:45.600Z,20.90
2018-09-06T09:09:14.792Z,20.90
2018-09-06T09:11:43.092Z,20.80
2018-09-06T09:14:11.412Z,20.70
2018-09-06T09:16:39.679Z,20.80
2018-09-06T09:19:08.385Z,21.00
2018-09-06T09:21:36.773Z,21.10
2018-09-06T09:24:05.862Z,21.30
2018-09-06T09:26:34.780Z,21.30
2018-09-06T09:29:03.089Z,21.20
2018-09-06T09:31:31.456Z,21.20
2018-09-06T09:33:59.783Z,21.30
2018-09-06T09:36:28.056Z,21.40
2018-09-06T09:38:56.348Z,21.60
2018-09-06T09:41:24.644Z,21.70
2018-09-06T09:43:52.972Z,21.80
2018-09-06T09:48:48.772Z,22.10
2018-09-06T09:51:17.144Z,22.30
2018-09-06T09:53:45.480Z,22.30
2018-09-06T09:56:13.781Z,22.30
2018-09-06T09:58:42.157Z,22.20
2018-09-06T10:01:10.497Z,22.20
2018-09-06T10:03:44.081Z,22.20
2018-09-06T10:06:21.422Z,22.10
2018-09-06T10:09:53.478Z,22.10
2018-09-06T10:12:21.938Z,21.90
2018-09-06T10:14:50.261Z,22.10
2018-09-06T10:17:19.301Z,22.00
2018-09-06T10:19:47.570Z,22.00
2018-09-06T10:22:15.898Z,22.00
2018-09-06T10:24:44.190Z,22.00
2018-09-06T10:27:12.521Z,22.10
2018-09-06T10:29:40.881Z,22.00
2018-09-06T10:32:09.158Z,22.10
2018-09-06T10:34:37.448Z,22.20
2018-09-06T10:37:05.833Z,22.30
2018-09-06T10:39:34.170Z,22.30
2018-09-06T10:42:02.437Z,22.20
2018-09-06T10:44:30.777Z,22.10
2018-09-06T10:46:59.114Z,22.00
2018-09-06T10:49:27.396Z,22.20
2018-09-06T10:51:55.693Z,22.20
2018-09-06T10:54:24.027Z,22.30
2018-09-06T10:56:52.340Z,22.50
2018-09-06T10:59:20.673Z,22.60
2018-09-06T11:01:48.993Z,22.70
2018-09-06T11:04:17.369Z,22.70
2018-09-06T11:06:45.728Z,22.60
2018-09-06T11:09:14.073Z,22.60
2018-09-06T11:11:42.352Z,22.60
2018-09-06T11:14:10.627Z,22.50
2018-09-06T11:16:38.989Z,22.50
2018-09-06T11:19:07.340Z,22.60
2018-09-06T11:21:35.782Z,22.60
2018-09-06T11:24:03.961Z,22.70
2018-09-06T11:26:32.245Z,22.90
2018-09-06T11:29:00.592Z,23.00
2018-09-06T11:31:28.866Z,23.10
2018-09-06T11:33:57.157Z,23.20
2018-09-06T11:36:25.422Z,23.30
2018-09-06T11:38:53.701Z,23.30
2018-09-06T11:41:21.972Z,23.30
2018-09-06T11:43:50.261Z,23.30
2018-09-06T11:46:18.549Z,23.30
2018-09-06T11:48:46.860Z,23.40
2018-09-06T11:51:15.175Z,23.30
2018-09-06T11:53:43.526Z,23.30
2018-09-06T11:56:11.814Z,23.30
2018-09-06T11:58:40.114Z,23.40
2018-09-06T12:01:08.517Z,23.40
2018-09-06T12:03:36.836Z,23.50
2018-09-06T12:06:05.205Z,23.50
2018-09-06T12:08:33.495Z,23.50
2018-09-06T12:11:01.796Z,23.60
2018-09-06T12:13:30.141Z,23.60
2018-09-06T12:15:58.541Z,23.70
2018-09-06T12:18:26.886Z,23.70
2018-09-06T12:20:55.173Z,23.90
2018-09-06T12:23:23.477Z,24.00
2018-09-06T12:25:51.776Z,24.10
2018-09-06T12:28:20.077Z,24.00
2018-09-06T12:30:48.437Z,24.00
2018-09-06T12:33:16.937Z,23.90
2018-09-06T12:35:45.122Z,23.90
2018-09-06T12:38:13.457Z,23.90
2018-09-06T12:40:41.777Z,23.90
2018-09-06T12:43:10.065Z,23.90
2018-09-06T12:45:38.413Z,23.90
2018-09-06T12:48:06.709Z,23.80
2018-09-06T12:50:35.049Z,23.80
2018-09-06T12:53:03.480Z,24.00
2018-09-06T12:55:31.773Z,24.10
2018-09-06T12:58:00.081Z,24.20
2018-09-06T13:00:28.423Z,24.30
2018-09-06T13:02:56.681Z,24.10
2018-09-06T13:05:24.965Z,24.00
2018-09-06T13:07:53.301Z,24.10
2018-09-06T13:10:21.682Z,24.20
2018-09-06T13:12:49.976Z,24.30
2018-09-06T13:15:18.285Z,24.40
2018-09-06T13:17:46.557Z,24.40
2018-09-06T13:20:14.844Z,24.40
2018-09-06T13:22:43.162Z,24.50
2018-09-06T13:25:11.428Z,24.40
2018-09-06T13:27:39.729Z,24.50
2018-09-06T13:30:08.045Z,24.60
2018-09-06T13:32:36.334Z,24.60
2018-09-06T13:35:04.632Z,24.50
2018-09-06T13:37:32.909Z,24.50
2018-09-06T13:40:01.188Z,24.40
2018-09-06T13:42:29.466Z,24.60
2018-09-06T13:44:57.764Z,24.70
2018-09-06T13:47:26.069Z,24.80
2018-09-06T13:49:54.420Z,24.80
2018-09-06T13:52:22.709Z,24.90
2018-09-06T13:54:50.996Z,25.00
2018-09-06T13:57:19.278Z,24.90
2018-09-06T13:59:47.575Z,25.10
2018-09-06T14:02:15.857Z,25.00
2018-09-06T14:04:44.158Z,25.00
2018-09-06T14:07:12.434Z,25.00
2018-09-06T14:09:40.741Z,25.10
2018-09-06T14:12:09.060Z,25.20
2018-09-06T14:14:37.349Z,25.30
2018-09-06T14:17:05.649Z,25.40
2018-09-06T14:19:34.009Z,25.40
2018-09-06T14:22:02.301Z,25.30
2018-09-06T14:24:30.589Z,25.30
2018-09-06T14:26:59.058Z,25.20
2018-09-06T14:29:27.340Z,25.10
2018-09-06T14:31:55.638Z,25.30
2018-09-06T14:34:23.922Z,25.30
2018-09-06T14:36:52.199Z,25.10
2018-09-06T14:39:20.477Z,25.10
2018-09-06T14:41:48.755Z,25.00
2018-09-06T14:44:17.043Z,25.00
2018-09-06T14:46:45.352Z,25.10
2018-09-06T14:49:13.648Z,25.10
2018-09-06T14:51:41.954Z,25.10
2018-09-06T14:54:10.225Z,25.20
2018-09-06T14:56:38.516Z,25.20
2018-09-06T14:59:06.802Z,25.20
2018-09-06T15:01:35.196Z,25.20
2018-09-06T15:04:03.455Z,25.10
2018-09-06T15:06:31.749Z,25.00
2018-09-06T15:09:00.033Z,25.00
2018-09-06T15:11:28.325Z,25.00
2018-09-06T15:13:56.668Z,25.00
2018-09-06T15:16:24.920Z,25.00
2018-09-06T15:18:53.251Z,25.00
2018-09-06T15:21:21.540Z,25.10
2018-09-06T15:23:49.829Z,25.20
2018-09-06T15:26:18.114Z,25.30
2018-09-06T15:28:46.393Z,25.30
2018-09-06T15:31:14.673Z,25.30
2018-09-06T15:33:42.965Z,25.20
2018-09-06T15:36:11.256Z,25.10
2018-09-06T15:38:39.536Z,25.20
2018-09-06T15:41:07.810Z,25.00
2018-09-06T15:43:36.106Z,25.00
2018-09-06T15:46:04.407Z,25.00
2018-09-06T15:48:32.677Z,25.00
2018-09-06T15:51:00.960Z,25.00
2018-09-06T15:53:29.260Z,24.90
2018-09-06T15:55:57.580Z,24.90
2018-09-06T15:58:25.839Z,24.90
2018-09-06T16:00:54.364Z,24.90
2018-09-06T16:03:22.645Z,24.80
2018-09-06T16:05:50.949Z,24.80
2018-09-06T16:08:19.238Z,24.70
2018-09-06T16:10:47.500Z,24.70
2018-09-06T16:13:15.784Z,24.70
2018-09-06T16:15:44.064Z,24.60
2018-09-06T16:18:12.385Z,24.50
2018-09-06T16:20:40.680Z,24.50
2018-09-06T16:23:08.987Z,24.50
2018-09-06T16:25:37.255Z,24.30
2018-09-06T16:28:05.569Z,24.20
2018-09-06T16:30:33.848Z,24.20
2018-09-06T16:33:02.127Z,24.20
2018-09-06T16:35:30.412Z,24.10
2018-09-06T16:37:58.755Z,24.00
2018-09-06T16:40:27.037Z,24.00
2018-09-06T16:42:55.316Z,23.90
2018-09-06T16:45:23.614Z,23.90
2018-09-06T16:47:51.899Z,23.70
2018-09-06T16:50:20.169Z,23.70
2018-09-06T16:52:48.457Z,23.70
2018-09-06T16:55:16.761Z,23.60
2018-09-06T16:57:45.044Z,23.60
2018-09-06T17:00:13.329Z,23.40
2018-09-06T17:02:41.613Z,23.30
2018-09-06T17:05:09.905Z,23.20
2018-09-06T17:07:38.220Z,23.10
2018-09-06T17:10:06.563Z,22.90
2018-09-06T17:12:34.852Z,22.80
2018-09-06T17:15:03.197Z,22.70
2018-09-06T17:17:31.480Z,22.60
2018-09-06T17:19:59.788Z,22.50
2018-09-06T17:22:28.097Z,22.40
2018-09-06T17:24:56.373Z,22.30
2018-09-06T17:27:24.650Z,22.20
2018-09-06T17:29:52.935Z,22.10
2018-09-06T17:32:21.290Z,22.10
2018-09-06T17:34:49.521Z,21.90
2018-09-06T17:37:17.838Z,21.90
2018-09-06T17:39:46.104Z,21.80
2018-09-06T17:42:14.380Z,21.80
2018-09-06T17:44:42.669Z,21.70
2018-09-06T17:47:10.941Z,21.50
2018-09-06T17:49:39.221Z,21.40
2018-09-06T17:52:07.512Z,21.40
2018-09-06T17:54:35.890Z,21.30
2018-09-06T17:57:04.154Z,21.20
2018-09-06T17:59:32.453Z,21.20
2018-09-06T18:02:00.742Z,21.10
2018-09-06T18:04:29.057Z,21.10
2018-09-06T18:06:57.350Z,21.00
2018-09-06T18:09:25.675Z,21.00
2018-09-06T18:11:53.972Z,20.90
2018-09-06T18:14:22.268Z,20.80
2018-09-06T18:16:50.578Z,20.70
2018-09-06T18:19:18.909Z,20.70
2018-09-06T18:21:47.234Z,20.70
2018-09-06T18:24:15.541Z,20.70
2018-09-06T18:26:43.832Z,20.60
2018-09-06T18:29:12.129Z,20.60
2018-09-06T18:31:40.435Z,20.60
2018-09-06T18:34:08.721Z,20.50
2018-09-06T18:36:37.017Z,20.50
2018-09-06T18:39:06.563Z,20.40
2018-09-06T18:41:34.861Z,20.30
2018-09-06T18:44:03.250Z,20.20
2018-09-06T18:46:31.447Z,20.20
2018-09-06T18:48:59.729Z,20.20
2018-09-06T18:51:27.995Z,20.20
2018-09-06T18:53:56.330Z,20.10
2018-09-06T18:56:24.609Z,20.00
2018-09-06T18:58:52.909Z,19.80
2018-09-06T19:01:21.245Z,19.80
2018-09-06T19:03:49.522Z,19.90
2018-09-06T19:06:18.013Z,19.80
2018-09-06T19:08:46.313Z,19.90
2018-09-06T19:11:14.694Z,20.00
2018-09-06T19:13:42.973Z,20.00
2018-09-06T19:16:11.245Z,20.00
2018-09-06T19:18:39.577Z,20.00
2018-09-06T19:21:07.856Z,20.00
2018-09-06T19:23:36.172Z,20.00
2018-09-06T19:26:04.458Z,20.00
2018-09-06T19:28:32.744Z,20.00
2018-09-06T19:31:01.018Z,19.90
2018-09-06T19:33:29.483Z,19.90
2018-09-06T19:35:57.798Z,19.80
2018-09-06T19:38:26.098Z,19.70
2018-09-06T19:40:54.388Z,19.70
2018-09-06T19:43:22.685Z,19.70
2018-09-06T19:45:50.988Z,19.60
2018-09-06T19:48:19.297Z,19.70
2018-09-06T19:50:47.665Z,19.50
2018-09-06T19:53:15.956Z,19.40
2018-09-06T19:55:44.534Z,19.30
2018-09-06T19:58:12.817Z,19.20
2018-09-06T20:00:41.180Z,19.00
2018-09-06T20:03:09.464Z,18.90
2018-09-06T20:05:37.885Z,18.80
2018-09-06T20:08:06.277Z,18.70
2018-09-06T20:10:34.619Z,18.60
2018-09-06T20:13:03.192Z,18.70
2018-09-06T20:15:31.472Z,18.60
2018-09-06T20:17:59.772Z,18.60
2018-09-06T20:20:28.070Z,18.60
2018-09-06T20:22:56.368Z,18.50
2018-09-06T20:25:24.944Z,18.50
2018-09-06T20:27:53.299Z,18.50
2018-09-06T20:30:21.525Z,18.40
2018-09-06T20:32:49.805Z,18.40
2018-09-06T20:35:18.112Z,18.30
2018-09-06T20:37:46.392Z,18.30
2018-09-06T20:40:14.680Z,18.20
2018-09-06T20:42:42.966Z,18.10
2018-09-06T20:45:11.344Z,17.90
2018-09-06T20:47:39.644Z,17.80
2018-09-06T20:50:08.001Z,17.70
2018-09-06T20:52:36.413Z,17.60
2018-09-06T20:55:04.786Z,17.50
2018-09-06T20:57:33.326Z,17.40
2018-09-06T21:00:02.072Z,17.40
2018-09-06T21:02:35.809Z,17.40
2018-09-06T21:05:04.440Z,17.30
2018-09-06T21:07:32.737Z,17.30
2018-09-06T21:10:01.074Z,17.30
2018-09-06T21:12:29.413Z,17.20
2018-09-06T21:14:57.689Z,17.10
2018-09-06T21:17:25.954Z,17.10
2018-09-06T21:19:54.286Z,17.10
2018-09-06T21:22:22.587Z,17.10
2018-09-06T21:24:50.872Z,17.20
2018-09-06T21:27:19.152Z,17.10
2018-09-06T21:29:47.443Z,17.10
2018-09-06T21:32:15.736Z,17.10
2018-09-06T21:34:44.064Z,17.00
2018-09-06T21:37:12.345Z,17.00
2018-09-06T21:39:40.637Z,17.00
2018-09-06T21:42:08.901Z,17.00
2018-09-06T21:44:37.192Z,17.00
2018-09-06T21:47:05.648Z,17.00
2018-09-06T21:49:33.933Z,16.90
2018-09-06T21:52:02.201Z,16.90
2018-09-06T21:54:30.490Z,16.90
2018-09-06T21:56:58.778Z,16.80
2018-09-06T21:59:27.086Z,16.80
2018-09-06T22:01:55.365Z,16.80
2018-09-06T22:04:23.637Z,16.80
2018-09-06T22:06:51.894Z,16.80
2018-09-06T22:09:20.173Z,16.70
2018-09-06T22:11:48.621Z,16.70
2018-09-06T22:14:16.906Z,16.60
2018-09-06T22:16:45.206Z,16.60
2018-09-06T22:19:13.540Z,16.60
2018-09-06T22:21:41.847Z,16.60
2018-09-06T22:24:10.118Z,16.60
2018-09-06T22:26:38.401Z,16.60
2018-09-06T22:29:06.773Z,16.50
2018-09-06T22:31:35.061Z,16.50
2018-09-06T22:34:03.358Z,16.40
2018-09-06T22:36:31.648Z,16.50
2018-09-06T22:38:59.928Z,16.50
2018-09-06T22:41:28.203Z,16.50
2018-09-06T22:43:56.465Z,16.50
2018-09-06T22:46:24.781Z,16.50
2018-09-06T22:48:53.110Z,16.50
2018-09-06T22:51:21.337Z,16.50
2018-09-06T22:53:49.616Z,16.50
2018-09-06T22:56:17.910Z,16.50
2018-09-06T22:58:46.170Z,16.50
2018-09-06T23:01:15.340Z,16.50
2018-09-06T23:03:44.335Z,16.50
2018-09-06T23:06:12.599Z,16.40
2018-09-06T23:08:41.024Z,16.50
2018-09-06T23:11:09.306Z,16.50
2018-09-06T23:13:37.569Z,16.50
2018-09-06T23:16:05.982Z,16.50
2018-09-06T23:18:34.304Z,16.50
2018-09-06T23:21:02.601Z,16.40
2018-09-06T23:23:30.922Z,16.40
2018-09-06T23:25:59.208Z,16.40
2018-09-06T23:28:27.554Z,16.40
2018-09-06T23:30:55.931Z,16.40
2018-09-06T23:33:24.247Z,16.30
2018-09-06T23:35:52.697Z,16.30
2018-09-06T23:38:21.071Z,16.30
2018-09-06T23:40:57.011Z,16.30
2018-09-06T23:43:26.465Z,16.20
2018-09-06T23:45:56.046Z,16.30
2018-09-06T23:48:25.484Z,16.30
2018-09-06T23:50:54.696Z,16.30
2018-09-06T23:53:23.374Z,16.20
2018-09-06T23:55:51.684Z,16.20
2018-09-06T23:58:20.181Z,16.20
